createdAt,value
2024-02-26T00:01:36.311Z,97969.72
2024-02-26T00:04:04.194Z,97980.03
2024-02-26T00:06:33.618Z,97980.56
2024-02-26T00:09:01.814Z,97968.41
2024-02-26T00:11:29.534Z,97967.69
2024-02-26T00:13:57.152Z,97962.97
2024-02-26T00:16:24.877Z,97971.66
2024-02-26T00:18:52.676Z,97971.13
2024-02-26T00:21:20.447Z,97966.09
2024-02-26T00:23:51.107Z,97967.84
2024-02-26T00:26:18.774Z,97977.69
2024-02-26T00:28:46.380Z,97989.22
2024-02-26T00:31:15.596Z,97995.69
2024-02-26T00:33:44.423Z,97982.56
2024-02-26T00:36:12.102Z,97987.59
2024-02-26T00:38:40.615Z,97975.28
2024-02-26T00:41:09.595Z,97983.06
2024-02-26T00:43:40.172Z,97981.31
2024-02-26T00:46:08.073Z,97978.47
2024-02-26T00:48:35.833Z,97984.22
2024-02-26T00:51:06.192Z,97978.06
2024-02-26T00:53:33.943Z,97992.47
2024-02-26T00:56:01.520Z,97991.75
2024-02-26T00:58:30.547Z,97990.50
2024-02-26T01:00:58.287Z,97988.66
2024-02-26T01:03:26.119Z,97994.66
2024-02-26T01:05:56.708Z,97989.81
2024-02-26T01:08:26.399Z,97993.69
2024-02-26T01:10:54.090Z,97995.31
2024-02-26T01:13:21.861Z,97995.41
2024-02-26T01:15:50.882Z,97996.81
2024-02-26T01:18:18.728Z,97996.69
2024-02-26T01:20:46.370Z,98004.94
2024-02-26T01:23:14.696Z,98004.19
2024-02-26T01:25:43.818Z,98003.91
2024-02-26T01:28:11.405Z,97996.59
2024-02-26T01:30:39.140Z,97996.50
2024-02-26T01:33:09.126Z,98004.44
2024-02-26T01:35:37.103Z,97997.69
2024-02-26T01:38:04.846Z,97994.94
2024-02-26T01:40:32.554Z,98001.81
2024-02-26T01:43:01.258Z,97999.75
2024-02-26T01:45:29.553Z,97993.63
2024-02-26T01:47:57.910Z,98000.34
2024-02-26T01:50:28.209Z,98002.41
2024-02-26T01:52:56.865Z,97999.78
2024-02-26T01:55:26.227Z,98000.47
2024-02-26T01:57:54.977Z,98001.00
2024-02-26T02:00:23.611Z,97999.41
2024-02-26T02:02:53.598Z,97999.44
2024-02-26T02:05:22.932Z,98000.72
2024-02-26T02:07:52.456Z,98000.88
2024-02-26T02:10:23.793Z,98004.31
2024-02-26T02:12:51.685Z,98002.13
2024-02-26T02:15:19.836Z,98000.06
2024-02-26T02:17:47.954Z,98012.69
2024-02-26T02:20:18.704Z,98007.41
2024-02-26T02:22:48.298Z,98010.31
2024-02-26T02:25:16.121Z,98016.41
2024-02-26T02:27:44.951Z,98008.47
2024-02-26T02:30:14.346Z,98016.22
2024-02-26T02:32:42.714Z,98015.59
2024-02-26T02:35:10.575Z,98011.72
2024-02-26T02:37:38.666Z,98002.53
2024-02-26T02:40:09.112Z,97998.97
2024-02-26T02:42:36.699Z,97999.69
2024-02-26T02:45:04.551Z,98001.28
2024-02-26T02:47:32.223Z,98003.69
2024-02-26T02:49:59.874Z,98003.69
2024-02-26T02:52:27.489Z,97991.31
2024-02-26T02:54:55.100Z,97994.22
2024-02-26T02:57:24.483Z,97989.84
2024-02-26T02:59:52.269Z,97992.38
2024-02-26T03:02:19.910Z,97984.78
2024-02-26T03:04:46.806Z,97990.94
2024-02-26T03:07:14.656Z,97985.38
2024-02-26T03:09:42.316Z,97991.97
2024-02-26T03:12:10.734Z,97992.88
2024-02-26T03:14:39.719Z,98000.09
2024-02-26T03:17:07.779Z,97997.69
2024-02-26T03:19:36.340Z,97998.84
2024-02-26T03:22:08.782Z,97998.53
2024-02-26T03:24:41.672Z,97984.19
2024-02-26T03:27:10.769Z,97994.75
2024-02-26T03:29:40.160Z,97995.47
2024-02-26T03:32:08.509Z,97987.72
2024-02-26T03:34:36.503Z,97989.53
2024-02-26T03:37:04.466Z,97984.41
2024-02-26T03:39:32.276Z,97986.38
2024-02-26T03:41:59.913Z,97985.75
2024-02-26T03:44:27.538Z,97991.34
2024-02-26T03:46:56.694Z,97999.22
2024-02-26T03:49:24.560Z,97987.59
2024-02-26T03:51:52.347Z,97981.22
2024-02-26T03:54:20.055Z,97978.28
2024-02-26T03:56:47.868Z,97980.53
2024-02-26T03:59:15.716Z,97977.41
2024-02-26T04:01:47.559Z,97991.63
2024-02-26T04:04:16.644Z,97992.63
2024-02-26T04:06:46.811Z,97994.00
2024-02-26T04:09:16.298Z,97994.06
2024-02-26T04:11:45.035Z,97997.28
2024-02-26T04:14:13.501Z,98002.59
2024-02-26T04:16:41.222Z,98008.66
2024-02-26T04:19:09.006Z,98009.28
2024-02-26T04:21:37.992Z,98010.59
2024-02-26T04:24:06.284Z,98015.59
2024-02-26T04:26:33.916Z,98011.03
2024-02-26T04:29:01.497Z,98004.50
2024-02-26T04:31:29.096Z,98020.31
2024-02-26T04:33:56.999Z,98009.91
2024-02-26T04:36:24.824Z,98018.31
2024-02-26T04:38:55.632Z,98026.28
2024-02-26T04:41:23.558Z,98024.00
2024-02-26T04:43:51.229Z,98022.38
2024-02-26T04:46:18.835Z,98025.19
2024-02-26T04:48:50.867Z,98026.50
2024-02-26T04:51:18.659Z,98027.47
2024-02-26T04:53:46.324Z,98024.69
2024-02-26T04:56:15.482Z,98020.91
2024-02-26T04:58:43.122Z,98023.31
2024-02-26T05:01:11.937Z,98029.09
2024-02-26T05:03:39.884Z,98030.66
2024-02-26T05:06:06.979Z,98020.00
2024-02-26T05:08:36.786Z,98023.72
2024-02-26T05:11:05.084Z,98028.44
2024-02-26T05:13:34.083Z,98033.03
2024-02-26T05:16:01.702Z,98039.63
2024-02-26T05:18:29.723Z,98035.31
2024-02-26T05:20:57.547Z,98034.56
2024-02-26T05:23:25.199Z,98037.28
2024-02-26T05:25:52.898Z,98044.31
2024-02-26T05:28:21.752Z,98041.75
2024-02-26T05:30:50.833Z,98043.28
2024-02-26T05:33:19.226Z,98050.97
2024-02-26T05:35:47.096Z,98046.78
2024-02-26T05:38:14.782Z,98045.84
2024-02-26T05:40:42.484Z,98053.53
2024-02-26T05:43:10.184Z,98055.34
2024-02-26T05:45:37.828Z,98048.69
2024-02-26T05:48:07.665Z,98059.25
2024-02-26T05:50:35.343Z,98057.22
2024-02-26T05:53:02.934Z,98056.22
2024-02-26T05:55:30.920Z,98058.25
2024-02-26T05:57:58.549Z,98060.47
2024-02-26T06:00:26.183Z,98063.53
2024-02-26T06:02:53.915Z,98082.25
2024-02-26T06:05:27.544Z,98075.84
2024-02-26T06:07:55.319Z,98077.22
2024-02-26T06:10:23.206Z,98080.41
2024-02-26T06:12:50.816Z,98088.34
2024-02-26T06:15:31.993Z,98088.38
2024-02-26T06:18:17.014Z,98087.09
2024-02-26T06:20:49.808Z,98096.19
2024-02-26T06:23:17.921Z,98084.63
2024-02-26T06:25:45.579Z,98097.88
2024-02-26T06:28:13.234Z,98098.41
2024-02-26T06:30:40.840Z,98107.19
2024-02-26T06:33:09.010Z,98108.03
2024-02-26T06:35:36.639Z,98112.13
2024-02-26T06:38:05.980Z,98112.56
2024-02-26T06:40:33.622Z,98111.72
2024-02-26T06:43:01.331Z,98113.22
2024-02-26T06:45:29.188Z,98117.41
2024-02-26T06:47:57.651Z,98105.56
2024-02-26T06:50:25.444Z,98123.78
2024-02-26T06:52:53.050Z,98116.56
2024-02-26T06:55:22.081Z,98123.13
2024-02-26T06:57:49.912Z,98127.22
2024-02-26T07:00:26.541Z,98124.09
2024-02-26T07:03:15.549Z,98117.91
2024-02-26T07:05:49.425Z,98114.94
2024-02-26T07:08:55.109Z,98122.72
2024-02-26T07:11:24.152Z,98123.88
2024-02-26T07:13:51.934Z,98150.19
2024-02-26T07:16:19.528Z,98140.19
2024-02-26T07:18:47.341Z,98141.59
2024-02-26T07:21:15.049Z,98140.19
2024-02-26T07:23:43.244Z,98151.84
2024-02-26T07:26:13.131Z,98150.16
2024-02-26T07:28:42.142Z,98150.94
2024-02-26T07:31:09.814Z,98150.56
2024-02-26T07:33:37.499Z,98152.94
2024-02-26T07:36:05.915Z,98157.00
2024-02-26T07:38:42.226Z,98153.06
2024-02-26T07:41:11.578Z,98158.28
2024-02-26T07:43:39.359Z,98152.81
2024-02-26T07:46:08.327Z,98154.34
2024-02-26T07:48:36.210Z,98159.19
2024-02-26T07:51:04.394Z,98159.41
2024-02-26T07:53:32.402Z,98175.91
2024-02-26T07:56:00.042Z,98181.88
2024-02-26T07:58:27.729Z,98164.31
2024-02-26T08:00:55.421Z,98170.28
2024-02-26T08:03:24.537Z,98176.44
2024-02-26T08:05:53.465Z,98173.44
2024-02-26T08:08:21.286Z,98176.44
2024-02-26T08:10:48.964Z,98173.81
2024-02-26T08:13:16.689Z,98175.94
2024-02-26T08:15:44.284Z,98185.00
2024-02-26T08:18:12.159Z,98185.31
2024-02-26T08:20:41.171Z,98187.38
2024-02-26T08:23:09.278Z,98187.00
2024-02-26T08:25:36.027Z,98194.09
2024-02-26T08:28:03.887Z,98202.78
2024-02-26T08:30:31.621Z,98204.78
2024-02-26T08:32:59.336Z,98201.16
2024-02-26T08:35:27.039Z,98205.38
2024-02-26T08:37:56.016Z,98214.25
2024-02-26T08:40:23.918Z,98209.34
2024-02-26T08:42:51.494Z,98217.06
2024-02-26T08:45:19.400Z,98208.72
2024-02-26T08:47:47.438Z,98210.47
2024-02-26T08:50:16.239Z,98214.72
2024-02-26T08:52:44.087Z,98221.41
2024-02-26T08:55:14.522Z,98226.28
2024-02-26T08:57:42.254Z,98231.44
2024-02-26T09:00:10.873Z,98237.41
2024-02-26T09:02:39.678Z,98251.25
2024-02-26T09:05:08.221Z,98257.81
2024-02-26T09:07:35.943Z,98254.53
2024-02-26T09:10:03.664Z,98243.03
2024-02-26T09:12:32.701Z,98250.56
2024-02-26T09:15:00.446Z,98256.91
2024-02-26T09:17:28.286Z,98258.59
2024-02-26T09:19:56.083Z,98250.09
2024-02-26T09:22:23.814Z,98247.72
2024-02-26T09:24:53.374Z,98253.72
2024-02-26T09:27:21.197Z,98251.94
2024-02-26T09:29:50.180Z,98261.69
2024-02-26T09:32:18.822Z,98266.66
2024-02-26T09:34:46.554Z,98270.34
2024-02-26T09:37:21.260Z,98266.59
2024-02-26T09:39:50.194Z,98280.47
2024-02-26T09:42:21.120Z,98275.91
2024-02-26T09:44:53.780Z,98285.94
2024-02-26T09:47:21.956Z,98284.69
2024-02-26T09:49:51.248Z,98298.16
2024-02-26T09:52:21.354Z,98289.03
2024-02-26T09:54:49.730Z,98294.50
2024-02-26T09:57:18.750Z,98297.22
2024-02-26T09:59:48.600Z,98301.94
2024-02-26T10:02:17.952Z,98299.19
2024-02-26T10:04:50.305Z,98311.19
2024-02-26T10:07:19.516Z,98314.84
2024-02-26T10:09:47.304Z,98313.09
2024-02-26T10:12:16.669Z,98315.88
2024-02-26T10:14:44.629Z,98324.03
2024-02-26T10:17:12.647Z,98314.88
2024-02-26T10:19:41.806Z,98322.66
2024-02-26T10:22:09.483Z,98333.16
2024-02-26T10:24:37.291Z,98328.53
2024-02-26T10:27:05.723Z,98328.09
2024-02-26T10:29:33.952Z,98335.09
2024-02-26T10:32:01.617Z,98338.38
2024-02-26T10:34:30.570Z,98334.88
2024-02-26T10:36:59.739Z,98348.72
2024-02-26T10:39:27.802Z,98339.47
2024-02-26T10:41:55.606Z,98349.84
2024-02-26T10:44:23.285Z,98354.78
2024-02-26T10:46:51.521Z,98361.09
2024-02-26T10:49:21.964Z,98364.72
2024-02-26T10:51:57.857Z,98360.88
2024-02-26T10:54:29.709Z,98357.72
2024-02-26T10:56:59.767Z,98374.22
2024-02-26T10:59:28.354Z,98358.19
2024-02-26T11:01:57.077Z,98363.47
2024-02-26T11:04:26.343Z,98376.25
2024-02-26T11:06:57.501Z,98374.78
2024-02-26T11:09:27.586Z,98375.00
2024-02-26T11:11:56.769Z,98390.16
2024-02-26T11:14:27.188Z,98382.63
2024-02-26T11:16:57.773Z,98382.25
2024-02-26T11:19:27.455Z,98388.88
2024-02-26T11:21:55.160Z,98384.50
2024-02-26T11:24:23.150Z,98391.06
2024-02-26T11:26:59.718Z,98386.47
2024-02-26T11:29:32.126Z,98390.16
2024-02-26T11:32:01.853Z,98382.78
2024-02-26T11:34:30.516Z,98391.69
2024-02-26T11:36:58.637Z,98388.66
2024-02-26T11:39:27.884Z,98399.13
2024-02-26T11:41:56.953Z,98391.00
2024-02-26T11:44:31.412Z,98402.69
2024-02-26T11:46:59.793Z,98399.91
2024-02-26T11:49:36.754Z,98394.25
2024-02-26T11:52:08.183Z,98401.84
2024-02-26T11:54:45.868Z,98400.81
2024-02-26T11:57:28.997Z,98397.97
2024-02-26T11:59:57.717Z,98403.22
2024-02-26T12:02:43.005Z,98409.44
2024-02-26T12:05:14.679Z,98411.19
2024-02-26T12:07:44.346Z,98413.53
2024-02-26T12:10:36.424Z,98411.09
2024-02-26T12:13:09.458Z,98425.31
2024-02-26T12:15:39.829Z,98416.03
2024-02-26T12:18:10.914Z,98423.75
2024-02-26T12:20:38.681Z,98423.47
2024-02-26T12:23:06.944Z,98426.47
2024-02-26T12:25:35.475Z,98423.63
2024-02-26T12:28:04.087Z,98428.34
2024-02-26T12:30:33.375Z,98422.09
2024-02-26T12:33:01.851Z,98415.75
2024-02-26T12:35:30.232Z,98417.66
2024-02-26T12:37:58.061Z,98426.00
2024-02-26T12:40:27.380Z,98427.31
2024-02-26T12:42:56.148Z,98431.47
2024-02-26T12:45:23.987Z,98437.69
2024-02-26T12:47:53.048Z,98436.06
2024-02-26T12:50:20.766Z,98435.72
2024-02-26T12:52:49.938Z,98439.56
2024-02-26T12:55:20.539Z,98454.16
2024-02-26T12:57:50.212Z,98456.34
2024-02-26T13:00:23.018Z,98458.38
2024-02-26T13:02:53.096Z,98458.72
2024-02-26T13:05:21.779Z,98465.63
2024-02-26T13:07:49.679Z,98468.97
2024-02-26T13:10:18.720Z,98470.53
2024-02-26T13:12:47.460Z,98489.69
2024-02-26T13:15:17.643Z,98480.00
2024-02-26T13:17:45.617Z,98482.59
2024-02-26T13:20:16.273Z,98482.47
2024-02-26T13:22:43.935Z,98481.13
2024-02-26T13:25:11.576Z,98491.34
2024-02-26T13:27:39.279Z,98498.53
2024-02-26T13:30:11.166Z,98498.28
2024-02-26T13:32:40.018Z,98508.44
2024-02-26T13:35:09.521Z,98504.09
2024-02-26T13:37:39.499Z,98512.28
2024-02-26T13:40:09.586Z,98503.81
2024-02-26T13:42:37.639Z,98507.56
2024-02-26T13:45:07.574Z,98510.44
2024-02-26T13:47:35.454Z,98522.56
2024-02-26T13:50:03.578Z,98519.97
2024-02-26T13:52:33.018Z,98519.53
2024-02-26T13:55:03.222Z,98522.69
2024-02-26T13:57:31.208Z,98526.13
2024-02-26T13:59:58.862Z,98537.47
2024-02-26T14:02:26.957Z,98527.91
2024-02-26T14:04:54.686Z,98527.19
2024-02-26T14:07:22.549Z,98526.56
2024-02-26T14:09:51.492Z,98531.56
2024-02-26T14:12:22.058Z,98535.03
2024-02-26T14:14:54.183Z,98538.53
2024-02-26T14:17:21.904Z,98539.09
2024-02-26T14:19:50.975Z,98550.28
2024-02-26T14:22:18.774Z,98536.28
2024-02-26T14:24:46.388Z,98555.38
2024-02-26T14:27:17.016Z,98540.22
2024-02-26T14:29:46.145Z,98547.84
2024-02-26T14:32:13.874Z,98543.88
2024-02-26T14:34:41.686Z,98554.97
2024-02-26T14:37:09.524Z,98549.22
2024-02-26T14:39:37.189Z,98564.75
2024-02-26T14:42:05.280Z,98570.88
2024-02-26T14:44:32.967Z,98570.75
2024-02-26T14:47:01.998Z,98572.16
2024-02-26T14:49:31.940Z,98582.25
2024-02-26T14:51:59.808Z,98585.34
2024-02-26T14:54:29.658Z,98579.94
2024-02-26T14:56:57.392Z,98584.38
2024-02-26T14:59:25.040Z,98587.59
2024-02-26T15:01:52.804Z,98593.25
2024-02-26T15:04:21.883Z,98600.28
2024-02-26T15:06:49.567Z,98592.72
2024-02-26T15:09:17.307Z,98596.69
2024-02-26T15:11:45.289Z,98598.81
2024-02-26T15:14:13.063Z,98598.88
2024-02-26T15:16:41.620Z,98601.66
2024-02-26T15:19:12.829Z,98608.75
2024-02-26T15:21:47.068Z,98610.19
2024-02-26T15:24:17.425Z,98618.09
2024-02-26T15:26:45.647Z,98606.13
2024-02-26T15:29:13.817Z,98619.16
2024-02-26T15:31:41.395Z,98633.94
2024-02-26T15:34:10.892Z,98628.09
2024-02-26T15:36:38.647Z,98632.72
2024-02-26T15:39:08.577Z,98635.31
2024-02-26T15:41:36.270Z,98636.75
2024-02-26T15:44:04.038Z,98642.47
2024-02-26T15:46:33.122Z,98643.19
2024-02-26T15:49:00.999Z,98657.91
2024-02-26T15:51:28.819Z,98663.47
2024-02-26T15:53:56.586Z,98659.59
2024-02-26T15:56:26.116Z,98657.00
2024-02-26T15:58:54.646Z,98667.91
2024-02-26T16:01:24.878Z,98665.41
2024-02-26T16:03:54.866Z,98674.44
2024-02-26T16:06:32.033Z,98686.91
2024-02-26T16:08:59.828Z,98697.75
2024-02-26T16:11:29.163Z,98690.59
2024-02-26T16:14:02.561Z,98692.75
2024-02-26T16:16:34.471Z,98705.53
2024-02-26T16:19:10.685Z,98707.94
2024-02-26T16:21:38.707Z,98709.97
2024-02-26T16:24:07.097Z,98723.19
2024-02-26T16:26:36.153Z,98715.72
2024-02-26T16:29:04.288Z,98717.00
2024-02-26T16:31:32.327Z,98729.06
2024-02-26T16:34:00.183Z,98722.00
2024-02-26T16:36:28.077Z,98722.09
2024-02-26T16:38:55.747Z,98733.47
2024-02-26T16:41:23.889Z,98739.03
2024-02-26T16:43:52.895Z,98730.91
2024-02-26T16:46:20.935Z,98735.00
2024-02-26T16:48:52.005Z,98739.13
2024-02-26T16:51:19.878Z,98747.28
2024-02-26T16:53:47.572Z,98751.91
2024-02-26T16:56:15.725Z,98758.59
2024-02-26T16:58:43.391Z,98767.03
2024-02-26T17:01:12.645Z,98760.91
2024-02-26T17:03:40.681Z,98762.31
2024-02-26T17:06:09.828Z,98774.97
2024-02-26T17:08:38.290Z,98768.69
2024-02-26T17:11:06.814Z,98778.66
2024-02-26T17:13:34.913Z,98775.66
2024-02-26T17:16:02.519Z,98785.00
2024-02-26T17:18:31.632Z,98790.59
2024-02-26T17:20:59.785Z,98790.88
2024-02-26T17:23:28.075Z,98806.56
2024-02-26T17:25:55.678Z,98801.97
2024-02-26T17:28:23.319Z,98825.44
2024-02-26T17:30:50.932Z,98822.81
2024-02-26T17:33:18.898Z,98837.78
2024-02-26T17:35:47.922Z,98841.03
2024-02-26T17:38:15.584Z,98838.06
2024-02-26T17:40:43.329Z,98839.09
2024-02-26T17:43:10.995Z,98854.34
2024-02-26T17:45:38.734Z,98866.41
2024-02-26T17:48:07.630Z,98854.59
2024-02-26T17:50:35.364Z,98875.88
2024-02-26T17:53:05.879Z,98872.25
2024-02-26T17:55:33.476Z,98878.16
2024-02-26T17:58:01.068Z,98885.88
2024-02-26T18:00:29.806Z,98894.63
2024-02-26T18:02:57.547Z,98895.66
2024-02-26T18:05:25.233Z,98939.56
2024-02-26T18:07:53.337Z,98895.00
2024-02-26T18:10:23.623Z,98903.22
2024-02-26T18:12:51.360Z,98920.56
2024-02-26T18:15:19.006Z,98904.50
2024-02-26T18:17:47.845Z,98923.78
2024-02-26T18:20:16.015Z,98907.59
2024-02-26T18:22:44.096Z,98926.19
2024-02-26T18:25:12.565Z,98936.50
2024-02-26T18:27:42.089Z,98938.00
2024-02-26T18:30:11.115Z,98939.19
2024-02-26T18:32:40.970Z,98927.75
2024-02-26T18:35:11.349Z,98946.31
2024-02-26T18:37:39.140Z,98991.06
2024-02-26T18:40:08.586Z,98972.34
2024-02-26T18:42:36.595Z,98977.19
2024-02-26T18:45:06.171Z,98962.78
2024-02-26T18:47:34.001Z,98973.38
2024-02-26T18:50:02.625Z,98976.81
2024-02-26T18:52:30.936Z,98986.09
2024-02-26T18:54:58.656Z,98970.22
2024-02-26T18:57:29.212Z,99012.34
2024-02-26T18:59:57.014Z,99004.16
2024-02-26T19:02:34.485Z,99003.28
2024-02-26T19:05:02.164Z,99010.81
2024-02-26T19:07:31.776Z,99008.00
2024-02-26T19:10:01.778Z,98997.13
2024-02-26T19:12:32.281Z,98991.69
2024-02-26T19:15:00.095Z,99013.19
2024-02-26T19:17:29.256Z,99023.78
2024-02-26T19:19:57.048Z,99020.16
2024-02-26T19:22:25.202Z,99030.00
2024-02-26T19:24:53.154Z,99036.72
2024-02-26T19:27:20.816Z,99032.25
2024-02-26T19:29:48.564Z,99040.44
2024-02-26T19:32:17.066Z,99035.38
2024-02-26T19:34:47.266Z,99050.81
2024-02-26T19:37:15.021Z,99042.69
2024-02-26T19:39:42.697Z,99045.84
2024-02-26T19:42:11.822Z,99049.84
2024-02-26T19:44:39.794Z,99050.94
2024-02-26T19:47:08.060Z,99050.25
2024-02-26T19:49:36.119Z,99047.22
2024-02-26T19:52:05.617Z,99058.53
2024-02-26T19:54:33.398Z,99073.66
2024-02-26T19:57:01.142Z,99075.88
2024-02-26T19:59:28.841Z,99082.69
2024-02-26T20:01:56.414Z,99090.13
2024-02-26T20:04:24.169Z,99090.59
2024-02-26T20:06:51.892Z,99094.69
2024-02-26T20:09:22.779Z,99103.28
2024-02-26T20:11:50.614Z,99084.59
2024-02-26T20:14:18.359Z,99092.06
2024-02-26T20:16:45.994Z,99095.16
2024-02-26T20:19:14.222Z,99095.03
2024-02-26T20:21:42.119Z,99115.63
2024-02-26T20:24:10.213Z,99117.59
2024-02-26T20:26:40.075Z,99128.22
2024-02-26T20:29:07.847Z,99120.50
2024-02-26T20:31:36.710Z,99129.47
2024-02-26T20:34:05.991Z,99132.41
2024-02-26T20:36:33.843Z,99140.31
2024-02-26T20:39:01.584Z,99135.97
2024-02-26T20:41:29.374Z,99142.81
2024-02-26T20:43:58.722Z,99153.91
2024-02-26T20:46:32.570Z,99150.84
2024-02-26T20:49:00.382Z,99140.13
2024-02-26T20:51:30.200Z,99149.50
2024-02-26T20:53:58.505Z,99153.81
2024-02-26T20:56:26.144Z,99161.00
2024-02-26T20:58:53.838Z,99160.03
2024-02-26T21:01:22.788Z,99169.97
2024-02-26T21:03:50.983Z,99173.38
2024-02-26T21:06:18.692Z,99180.22
2024-02-26T21:08:46.409Z,99193.81
2024-02-26T21:11:14.060Z,99197.81
2024-02-26T21:13:42.448Z,99179.56
2024-02-26T21:16:10.390Z,99185.47
2024-02-26T21:18:41.191Z,99189.72
2024-02-26T21:21:09.715Z,99187.41
2024-02-26T21:23:37.180Z,99200.38
2024-02-26T21:26:05.169Z,99217.94
2024-02-26T21:28:33.009Z,99211.09
2024-02-26T21:31:00.611Z,99217.88
2024-02-26T21:33:28.591Z,99225.78
2024-02-26T21:35:58.729Z,99236.56
2024-02-26T21:38:32.518Z,99231.13
2024-02-26T21:41:07.370Z,99236.97
2024-02-26T21:43:38.067Z,99245.75
2024-02-26T21:46:06.349Z,99245.50
2024-02-26T21:48:35.344Z,99254.28
2024-02-26T21:51:06.384Z,99252.06
2024-02-26T21:53:34.104Z,99256.94
2024-02-26T21:56:02.347Z,99266.63
2024-02-26T21:58:30.075Z,99257.06
2024-02-26T22:00:57.778Z,99268.16
2024-02-26T22:03:25.715Z,99277.00
2024-02-26T22:05:55.047Z,99270.38
2024-02-26T22:08:24.279Z,99276.56
2024-02-26T22:10:52.228Z,99274.88
2024-02-26T22:13:19.960Z,99281.75
2024-02-26T22:15:47.681Z,99276.34
2024-02-26T22:18:15.562Z,99277.00
2024-02-26T22:20:43.233Z,99300.34
2024-02-26T22:23:10.841Z,99282.09
2024-02-26T22:25:39.888Z,99289.13
2024-02-26T22:28:07.703Z,99293.88
2024-02-26T22:30:35.448Z,99291.38
2024-02-26T22:33:03.307Z,99292.34
2024-02-26T22:35:31.017Z,99309.75
2024-02-26T22:37:58.647Z,99308.28
2024-02-26T22:40:26.284Z,99317.97
2024-02-26T22:42:56.709Z,99325.72
2024-02-26T22:45:25.485Z,99326.16
2024-02-26T22:47:53.368Z,99320.94
2024-02-26T22:50:21.086Z,99332.34
2024-02-26T22:52:50.801Z,99332.28
2024-02-26T22:55:19.357Z,99343.25
2024-02-26T22:57:47.043Z,99337.38
2024-02-26T23:00:27.312Z,99352.91
2024-02-26T23:02:55.196Z,99346.03
2024-02-26T23:05:24.510Z,99357.53
2024-02-26T23:07:52.363Z,99348.59
2024-02-26T23:10:20.107Z,99358.50
2024-02-26T23:12:48.094Z,99350.06
2024-02-26T23:15:17.154Z,99351.28
2024-02-26T23:17:45.032Z,99362.88
2024-02-26T23:20:15.150Z,99363.09
2024-02-26T23:22:45.213Z,99356.00
2024-02-26T23:25:14.635Z,99361.94
2024-02-26T23:27:44.081Z,99372.75
2024-02-26T23:30:13.045Z,99368.28
2024-02-26T23:32:42.777Z,99378.34
2024-02-26T23:35:10.856Z,99373.81
2024-02-26T23:37:38.780Z,99388.28
2024-02-26T23:40:09.843Z,99384.72
2024-02-26T23:42:37.881Z,99375.63
2024-02-26T23:45:08.489Z,99380.69
2024-02-26T23:47:36.320Z,99376.56
2024-02-26T23:50:05.974Z,99387.25
2024-02-26T23:52:33.617Z,99386.72
2024-02-26T23:55:01.332Z,99382.28
2024-02-26T23:57:29.127Z,99383.47
2024-02-26T23:59:56.949Z,99395.88
